sensor_id;sensor_type;location;lat;lon;timestamp;P1;durP1;ratioP1;P2;durP2;ratioP2
14294;SDS011;7231;59.370;18.016;2023-08-01T00:01:46;7.53;;;3.83;;
14294;SDS011;7231;59.370;18.016;2023-08-01T00:04:14;9.27;;;3.63;;
14294;SDS011;7231;59.370;18.016;2023-08-01T00:06:44;10.55;;;4.32;;
14294;SDS011;7231;59.370;18.016;2023-08-01T00:09:12;9.25;;;3.85;;
14294;SDS011;7231;59.370;18.016;2023-08-01T00:11:40;7.78;;;3.90;;
14294;SDS011;7231;59.370;18.016;2023-08-01T00:14:08;8.25;;;3.90;;
14294;SDS011;7231;59.370;18.016;2023-08-01T00:16:36;9.10;;;4.28;;
14294;SDS011;7231;59.370;18.016;2023-08-01T00:19:04;10.18;;;4.60;;
14294;SDS011;7231;59.370;18.016;2023-08-01T00:21:32;9.15;;;5.00;;
14294;SDS011;7231;59.370;18.016;2023-08-01T00:24:02;7.60;;;4.15;;
14294;SDS011;7231;59.370;18.016;2023-08-01T00:26:30;7.35;;;4.55;;
14294;SDS011;7231;59.370;18.016;2023-08-01T00:28:58;8.07;;;4.40;;
14294;SDS011;7231;59.370;18.016;2023-08-01T00:31:26;8.50;;;4.50;;
14294;SDS011;7231;59.370;18.016;2023-08-01T00:33:54;10.50;;;4.57;;
14294;SDS011;7231;59.370;18.016;2023-08-01T00:36:22;7.50;;;3.72;;
14294;SDS011;7231;59.370;18.016;2023-08-01T00:38:50;10.15;;;3.83;;
14294;SDS011;7231;59.370;18.016;2023-08-01T00:41:19;10.35;;;4.57;;
14294;SDS011;7231;59.370;18.016;2023-08-01T00:43:47;10.80;;;4.38;;
14294;SDS011;7231;59.370;18.016;2023-08-01T00:46:15;8.95;;;3.90;;
14294;SDS011;7231;59.370;18.016;2023-08-01T00:48:43;9.60;;;3.88;;
14294;SDS011;7231;59.370;18.016;2023-08-01T00:51:11;7.60;;;3.80;;
14294;SDS011;7231;59.370;18.016;2023-08-01T00:53:40;7.55;;;4.22;;
14294;SDS011;7231;59.370;18.016;2023-08-01T00:56:08;10.52;;;4.47;;
14294;SDS011;7231;59.370;18.016;2023-08-01T00:58:37;8.60;;;4.35;;
14294;SDS011;7231;59.370;18.016;2023-08-01T01:01:05;6.57;;;4.35;;
14294;SDS011;7231;59.370;18.016;2023-08-01T01:03:33;9.93;;;4.60;;
14294;SDS011;7231;59.370;18.016;2023-08-01T01:06:05;8.73;;;4.53;;
14294;SDS011;7231;59.370;18.016;2023-08-01T01:08:37;7.40;;;3.85;;
14294;SDS011;7231;59.370;18.016;2023-08-01T01:11:05;7.80;;;4.18;;
14294;SDS011;7231;59.370;18.016;2023-08-01T01:13:33;8.20;;;4.05;;
14294;SDS011;7231;59.370;18.016;2023-08-01T01:16:03;7.18;;;4.35;;
14294;SDS011;7231;59.370;18.016;2023-08-01T01:18:31;9.70;;;4.53;;
14294;SDS011;7231;59.370;18.016;2023-08-01T01:21:00;6.25;;;3.70;;
14294;SDS011;7231;59.370;18.016;2023-08-01T01:23:28;11.02;;;3.97;;
14294;SDS011;7231;59.370;18.016;2023-08-01T01:25:58;5.57;;;3.90;;
14294;SDS011;7231;59.370;18.016;2023-08-01T01:28:26;6.20;;;3.90;;
14294;SDS011;7231;59.370;18.016;2023-08-01T01:30:54;8.55;;;4.28;;
14294;SDS011;7231;59.370;18.016;2023-08-01T01:33:22;7.13;;;3.83;;
14294;SDS011;7231;59.370;18.016;2023-08-01T01:35:51;13.85;;;4.65;;
14294;SDS011;7231;59.370;18.016;2023-08-01T01:38:21;9.10;;;4.35;;
14294;SDS011;7231;59.370;18.016;2023-08-01T01:40:49;5.97;;;3.95;;
14294;SDS011;7231;59.370;18.016;2023-08-01T01:43:17;8.60;;;4.30;;
14294;SDS011;7231;59.370;18.016;2023-08-01T01:45:45;7.60;;;4.05;;
14294;SDS011;7231;59.370;18.016;2023-08-01T01:48:13;7.55;;;3.72;;
14294;SDS011;7231;59.370;18.016;2023-08-01T01:50:41;9.55;;;3.85;;
14294;SDS011;7231;59.370;18.016;2023-08-01T01:53:09;9.93;;;3.88;;
14294;SDS011;7231;59.370;18.016;2023-08-01T01:55:38;7.28;;;3.83;;
14294;SDS011;7231;59.370;18.016;2023-08-01T01:58:06;8.43;;;4.18;;
14294;SDS011;7231;59.370;18.016;2023-08-01T02:00:34;7.75;;;3.92;;
14294;SDS011;7231;59.370;18.016;2023-08-01T02:03:02;7.22;;;3.28;;
14294;SDS011;7231;59.370;18.016;2023-08-01T02:05:30;3.55;;;3.13;;
14294;SDS011;7231;59.370;18.016;2023-08-01T02:07:58;7.22;;;3.55;;
14294;SDS011;7231;59.370;18.016;2023-08-01T02:10:26;7.05;;;3.45;;
14294;SDS011;7231;59.370;18.016;2023-08-01T02:12:56;7.38;;;3.30;;
14294;SDS011;7231;59.370;18.016;2023-08-01T02:15:24;5.78;;;3.47;;
14294;SDS011;7231;59.370;18.016;2023-08-01T02:17:52;8.65;;;3.08;;
14294;SDS011;7231;59.370;18.016;2023-08-01T02:20:20;5.53;;;3.10;;
14294;SDS011;7231;59.370;18.016;2023-08-01T02:22:48;5.35;;;2.63;;
14294;SDS011;7231;59.370;18.016;2023-08-01T02:25:16;5.20;;;3.05;;
14294;SDS011;7231;59.370;18.016;2023-08-01T02:27:44;5.00;;;3.08;;
14294;SDS011;7231;59.370;18.016;2023-08-01T02:30:13;6.05;;;3.17;;
14294;SDS011;7231;59.370;18.016;2023-08-01T02:32:41;5.18;;;3.00;;
14294;SDS011;7231;59.370;18.016;2023-08-01T02:35:09;3.90;;;2.95;;
14294;SDS011;7231;59.370;18.016;2023-08-01T02:37:37;5.25;;;2.70;;
14294;SDS011;7231;59.370;18.016;2023-08-01T02:40:07;7.32;;;2.85;;
14294;SDS011;7231;59.370;18.016;2023-08-01T02:42:36;6.30;;;3.20;;
14294;SDS011;7231;59.370;18.016;2023-08-01T02:45:04;7.65;;;3.33;;
14294;SDS011;7231;59.370;18.016;2023-08-01T02:47:34;7.22;;;3.40;;
14294;SDS011;7231;59.370;18.016;2023-08-01T02:50:02;6.53;;;2.85;;
14294;SDS011;7231;59.370;18.016;2023-08-01T02:52:31;7.32;;;3.10;;
14294;SDS011;7231;59.370;18.016;2023-08-01T02:54:59;11.70;;;3.65;;
14294;SDS011;7231;59.370;18.016;2023-08-01T02:57:27;7.90;;;3.53;;
14294;SDS011;7231;59.370;18.016;2023-08-01T02:59:54;8.15;;;3.65;;
14294;SDS011;7231;59.370;18.016;2023-08-01T03:02:22;6.55;;;3.28;;
14294;SDS011;7231;59.370;18.016;2023-08-01T03:04:52;8.23;;;3.63;;
14294;SDS011;7231;59.370;18.016;2023-08-01T03:07:20;9.98;;;4.57;;
14294;SDS011;7231;59.370;18.016;2023-08-01T03:09:48;7.07;;;3.85;;
14294;SDS011;7231;59.370;18.016;2023-08-01T03:12:16;6.18;;;3.30;;
14294;SDS011;7231;59.370;18.016;2023-08-01T03:14:44;7.50;;;3.67;;
14294;SDS011;7231;59.370;18.016;2023-08-01T03:17:14;6.85;;;3.65;;
14294;SDS011;7231;59.370;18.016;2023-08-01T03:19:43;9.15;;;4.22;;
14294;SDS011;7231;59.370;18.016;2023-08-01T03:22:12;8.25;;;3.85;;
14294;SDS011;7231;59.370;18.016;2023-08-01T03:24:40;8.95;;;3.80;;
14294;SDS011;7231;59.370;18.016;2023-08-01T03:27:08;7.05;;;3.60;;
14294;SDS011;7231;59.370;18.016;2023-08-01T03:29:36;8.98;;;4.25;;
14294;SDS011;7231;59.370;18.016;2023-08-01T03:32:04;6.97;;;3.80;;
14294;SDS011;7231;59.370;18.016;2023-08-01T03:34:33;5.53;;;3.88;;
14294;SDS011;7231;59.370;18.016;2023-08-01T03:37:02;11.98;;;4.32;;
14294;SDS011;7231;59.370;18.016;2023-08-01T03:39:32;7.75;;;4.18;;
14294;SDS011;7231;59.370;18.016;2023-08-01T03:42:00;5.95;;;3.88;;
14294;SDS011;7231;59.370;18.016;2023-08-01T03:44:28;6.85;;;3.92;;
14294;SDS011;7231;59.370;18.016;2023-08-01T03:46:59;7.43;;;4.70;;
14294;SDS011;7231;59.370;18.016;2023-08-01T03:49:27;13.30;;;4.45;;
14294;SDS011;7231;59.370;18.016;2023-08-01T03:51:55;7.85;;;4.38;;
14294;SDS011;7231;59.370;18.016;2023-08-01T03:54:25;6.65;;;4.82;;
14294;SDS011;7231;59.370;18.016;2023-08-01T03:56:55;11.45;;;5.28;;
14294;SDS011;7231;59.370;18.016;2023-08-01T03:59:23;7.70;;;4.50;;
14294;SDS011;7231;59.370;18.016;2023-08-01T04:01:52;7.82;;;4.75;;
14294;SDS011;7231;59.370;18.016;2023-08-01T04:04:20;8.75;;;4.60;;
14294;SDS011;7231;59.370;18.016;2023-08-01T04:06:48;7.88;;;4.65;;
14294;SDS011;7231;59.370;18.016;2023-08-01T04:09:16;9.50;;;4.82;;
14294;SDS011;7231;59.370;18.016;2023-08-01T04:11:44;10.18;;;4.78;;
14294;SDS011;7231;59.370;18.016;2023-08-01T04:14:14;10.00;;;4.72;;
14294;SDS011;7231;59.370;18.016;2023-08-01T04:16:42;8.88;;;5.00;;
14294;SDS011;7231;59.370;18.016;2023-08-01T04:19:10;8.73;;;4.72;;
14294;SDS011;7231;59.370;18.016;2023-08-01T04:21:38;8.45;;;4.68;;
14294;SDS011;7231;59.370;18.016;2023-08-01T04:24:06;8.73;;;4.55;;
14294;SDS011;7231;59.370;18.016;2023-08-01T04:26:33;9.68;;;4.15;;
14294;SDS011;7231;59.370;18.016;2023-08-01T04:29:04;6.40;;;3.95;;
14294;SDS011;7231;59.370;18.016;2023-08-01T04:31:33;7.20;;;4.05;;
14294;SDS011;7231;59.370;18.016;2023-08-01T04:34:01;9.60;;;4.15;;
14294;SDS011;7231;59.370;18.016;2023-08-01T04:36:29;11.07;;;3.72;;
14294;SDS011;7231;59.370;18.016;2023-08-01T04:38:57;8.10;;;3.75;;
14294;SDS011;7231;59.370;18.016;2023-08-01T04:41:25;7.15;;;3.70;;
14294;SDS011;7231;59.370;18.016;2023-08-01T04:43:54;8.30;;;4.55;;
14294;SDS011;7231;59.370;18.016;2023-08-01T04:46:22;8.88;;;4.00;;
14294;SDS011;7231;59.370;18.016;2023-08-01T04:48:51;9.10;;;3.83;;
14294;SDS011;7231;59.370;18.016;2023-08-01T04:51:19;5.40;;;3.47;;
14294;SDS011;7231;59.370;18.016;2023-08-01T04:53:47;10.02;;;3.45;;
14294;SDS011;7231;59.370;18.016;2023-08-01T04:56:15;8.40;;;3.28;;
14294;SDS011;7231;59.370;18.016;2023-08-01T04:58:43;6.68;;;3.13;;
14294;SDS011;7231;59.370;18.016;2023-08-01T05:01:11;9.25;;;3.42;;
14294;SDS011;7231;59.370;18.016;2023-08-01T05:03:39;7.75;;;3.65;;
14294;SDS011;7231;59.370;18.016;2023-08-01T05:06:09;6.18;;;3.20;;
14294;SDS011;7231;59.370;18.016;2023-08-01T05:08:37;6.82;;;3.08;;
14294;SDS011;7231;59.370;18.016;2023-08-01T05:11:05;5.82;;;3.22;;
14294;SDS011;7231;59.370;18.016;2023-08-01T05:13:33;5.47;;;2.83;;
14294;SDS011;7231;59.370;18.016;2023-08-01T05:16:01;6.60;;;3.38;;
14294;SDS011;7231;59.370;18.016;2023-08-01T05:18:32;5.63;;;3.58;;
14294;SDS011;7231;59.370;18.016;2023-08-01T05:21:00;8.98;;;3.40;;
14294;SDS011;7231;59.370;18.016;2023-08-01T05:23:30;8.07;;;3.13;;
14294;SDS011;7231;59.370;18.016;2023-08-01T05:25:58;6.40;;;2.80;;
14294;SDS011;7231;59.370;18.016;2023-08-01T05:28:26;7.53;;;2.92;;
14294;SDS011;7231;59.370;18.016;2023-08-01T05:30:54;8.02;;;3.20;;
14294;SDS011;7231;59.370;18.016;2023-08-01T05:33:22;7.05;;;2.78;;
14294;SDS011;7231;59.370;18.016;2023-08-01T05:35:50;6.20;;;2.80;;
14294;SDS011;7231;59.370;18.016;2023-08-01T05:38:18;4.78;;;2.90;;
14294;SDS011;7231;59.370;18.016;2023-08-01T05:40:47;6.40;;;2.30;;
14294;SDS011;7231;59.370;18.016;2023-08-01T05:43:15;3.15;;;2.20;;
14294;SDS011;7231;59.370;18.016;2023-08-01T05:45:43;4.15;;;2.47;;
14294;SDS011;7231;59.370;18.016;2023-08-01T05:48:11;6.78;;;2.67;;
14294;SDS011;7231;59.370;18.016;2023-08-01T05:50:40;4.57;;;2.50;;
14294;SDS011;7231;59.370;18.016;2023-08-01T05:53:08;4.25;;;2.65;;
14294;SDS011;7231;59.370;18.016;2023-08-01T05:55:36;4.65;;;2.53;;
14294;SDS011;7231;59.370;18.016;2023-08-01T05:58:05;6.15;;;2.50;;
14294;SDS011;7231;59.370;18.016;2023-08-01T06:00:33;4.22;;;2.42;;
14294;SDS011;7231;59.370;18.016;2023-08-01T06:03:01;6.35;;;2.60;;
14294;SDS011;7231;59.370;18.016;2023-08-01T06:05:29;6.00;;;2.63;;
14294;SDS011;7231;59.370;18.016;2023-08-01T06:07:57;6.43;;;2.50;;
14294;SDS011;7231;59.370;18.016;2023-08-01T06:10:25;8.07;;;2.30;;
14294;SDS011;7231;59.370;18.016;2023-08-01T06:12:53;4.60;;;2.10;;
14294;SDS011;7231;59.370;18.016;2023-08-01T06:15:23;6.28;;;2.17;;
14294;SDS011;7231;59.370;18.016;2023-08-01T06:17:51;5.63;;;2.33;;
14294;SDS011;7231;59.370;18.016;2023-08-01T06:20:19;4.78;;;2.55;;
14294;SDS011;7231;59.370;18.016;2023-08-01T06:22:47;4.53;;;2.03;;
14294;SDS011;7231;59.370;18.016;2023-08-01T06:25:15;4.25;;;2.20;;
14294;SDS011;7231;59.370;18.016;2023-08-01T06:27:45;8.07;;;2.35;;
14294;SDS011;7231;59.370;18.016;2023-08-01T06:30:13;6.53;;;2.20;;
14294;SDS011;7231;59.370;18.016;2023-08-01T06:32:43;4.20;;;2.30;;
14294;SDS011;7231;59.370;18.016;2023-08-01T06:35:11;4.47;;;2.25;;
14294;SDS011;7231;59.370;18.016;2023-08-01T06:37:38;8.88;;;2.40;;
14294;SDS011;7231;59.370;18.016;2023-08-01T06:40:07;7.78;;;2.53;;
14294;SDS011;7231;59.370;18.016;2023-08-01T06:42:35;3.28;;;2.03;;
14294;SDS011;7231;59.370;18.016;2023-08-01T06:45:04;6.93;;;2.47;;
14294;SDS011;7231;59.370;18.016;2023-08-01T06:47:32;6.47;;;2.00;;
14294;SDS011;7231;59.370;18.016;2023-08-01T06:50:02;5.15;;;2.10;;
14294;SDS011;7231;59.370;18.016;2023-08-01T06:52:31;3.78;;;1.80;;
14294;SDS011;7231;59.370;18.016;2023-08-01T06:54:59;3.28;;;1.60;;
14294;SDS011;7231;59.370;18.016;2023-08-01T06:57:28;4.82;;;1.83;;
14294;SDS011;7231;59.370;18.016;2023-08-01T06:59:56;9.23;;;2.00;;
14294;SDS011;7231;59.370;18.016;2023-08-01T07:02:24;4.68;;;1.67;;
14294;SDS011;7231;59.370;18.016;2023-08-01T07:04:53;2.80;;;1.50;;
14294;SDS011;7231;59.370;18.016;2023-08-01T07:07:23;5.90;;;2.08;;
14294;SDS011;7231;59.370;18.016;2023-08-01T07:09:51;3.72;;;1.70;;
14294;SDS011;7231;59.370;18.016;2023-08-01T07:12:19;4.55;;;1.80;;
14294;SDS011;7231;59.370;18.016;2023-08-01T07:14:47;5.07;;;1.83;;
14294;SDS011;7231;59.370;18.016;2023-08-01T07:17:15;3.20;;;1.67;;
14294;SDS011;7231;59.370;18.016;2023-08-01T07:19:43;5.78;;;2.00;;
14294;SDS011;7231;59.370;18.016;2023-08-01T07:22:11;5.82;;;1.88;;
14294;SDS011;7231;59.370;18.016;2023-08-01T07:24:40;3.45;;;1.45;;
14294;SDS011;7231;59.370;18.016;2023-08-01T07:27:08;7.95;;;2.05;;
14294;SDS011;7231;59.370;18.016;2023-08-01T07:29:36;2.78;;;1.98;;
14294;SDS011;7231;59.370;18.016;2023-08-01T07:32:05;2.97;;;1.48;;
14294;SDS011;7231;59.370;18.016;2023-08-01T07:34:33;5.55;;;1.80;;
14294;SDS011;7231;59.370;18.016;2023-08-01T07:37:01;4.10;;;2.00;;
14294;SDS011;7231;59.370;18.016;2023-08-01T07:39:29;4.63;;;1.80;;
14294;SDS011;7231;59.370;18.016;2023-08-01T07:41:58;3.25;;;1.40;;
14294;SDS011;7231;59.370;18.016;2023-08-01T07:44:26;4.00;;;1.70;;
14294;SDS011;7231;59.370;18.016;2023-08-01T07:46:55;2.88;;;1.50;;
14294;SDS011;7231;59.370;18.016;2023-08-01T07:49:24;3.42;;;1.60;;
14294;SDS011;7231;59.370;18.016;2023-08-01T07:51:52;4.97;;;1.80;;
14294;SDS011;7231;59.370;18.016;2023-08-01T07:54:20;4.60;;;1.67;;
14294;SDS011;7231;59.370;18.016;2023-08-01T07:56:48;3.28;;;1.88;;
14294;SDS011;7231;59.370;18.016;2023-08-01T07:59:18;4.15;;;1.48;;
14294;SDS011;7231;59.370;18.016;2023-08-01T08:01:45;4.60;;;2.08;;
14294;SDS011;7231;59.370;18.016;2023-08-01T08:04:14;2.60;;;1.60;;
14294;SDS011;7231;59.370;18.016;2023-08-01T08:06:42;3.83;;;1.80;;
14294;SDS011;7231;59.370;18.016;2023-08-01T08:09:10;6.38;;;1.98;;
14294;SDS011;7231;59.370;18.016;2023-08-01T08:11:38;4.10;;;1.75;;
14294;SDS011;7231;59.370;18.016;2023-08-01T08:14:06;3.88;;;1.70;;
14294;SDS011;7231;59.370;18.016;2023-08-01T08:16:35;2.50;;;2.08;;
14294;SDS011;7231;59.370;18.016;2023-08-01T08:19:03;6.18;;;1.90;;
14294;SDS011;7231;59.370;18.016;2023-08-01T08:21:31;4.85;;;1.60;;
14294;SDS011;7231;59.370;18.016;2023-08-01T08:23:59;2.05;;;1.45;;
14294;SDS011;7231;59.370;18.016;2023-08-01T08:26:27;4.57;;;2.22;;
14294;SDS011;7231;59.370;18.016;2023-08-01T08:28:55;5.45;;;1.90;;
14294;SDS011;7231;59.370;18.016;2023-08-01T08:31:23;3.55;;;1.60;;
14294;SDS011;7231;59.370;18.016;2023-08-01T08:33:53;3.38;;;1.88;;
14294;SDS011;7231;59.370;18.016;2023-08-01T08:36:21;3.45;;;1.95;;
14294;SDS011;7231;59.370;18.016;2023-08-01T08:38:49;2.83;;;1.92;;
14294;SDS011;7231;59.370;18.016;2023-08-01T08:41:19;2.90;;;1.52;;
14294;SDS011;7231;59.370;18.016;2023-08-01T08:43:48;2.55;;;1.42;;
14294;SDS011;7231;59.370;18.016;2023-08-01T08:46:16;3.10;;;1.30;;
14294;SDS011;7231;59.370;18.016;2023-08-01T08:48:46;4.18;;;1.40;;
14294;SDS011;7231;59.370;18.016;2023-08-01T08:51:16;1.90;;;1.40;;
14294;SDS011;7231;59.370;18.016;2023-08-01T08:53:45;2.53;;;1.00;;
14294;SDS011;7231;59.370;18.016;2023-08-01T08:56:14;2.45;;;1.30;;
14294;SDS011;7231;59.370;18.016;2023-08-01T08:58:43;2.58;;;1.30;;
14294;SDS011;7231;59.370;18.016;2023-08-01T09:01:13;2.65;;;1.42;;
14294;SDS011;7231;59.370;18.016;2023-08-01T09:03:41;1.77;;;1.15;;
14294;SDS011;7231;59.370;18.016;2023-08-01T09:06:11;5.13;;;2.17;;
14294;SDS011;7231;59.370;18.016;2023-08-01T09:08:46;2.08;;;1.10;;
14294;SDS011;7231;59.370;18.016;2023-08-01T09:11:18;2.58;;;1.40;;
14294;SDS011;7231;59.370;18.016;2023-08-01T09:13:47;2.28;;;1.13;;
14294;SDS011;7231;59.370;18.016;2023-08-01T09:16:15;3.15;;;1.33;;
14294;SDS011;7231;59.370;18.016;2023-08-01T09:18:46;1.88;;;1.00;;
14294;SDS011;7231;59.370;18.016;2023-08-01T09:21:17;2.08;;;1.00;;
14294;SDS011;7231;59.370;18.016;2023-08-01T09:23:47;0.70;;;0.60;;
14294;SDS011;7231;59.370;18.016;2023-08-01T09:26:16;1.92;;;0.90;;
14294;SDS011;7231;59.370;18.016;2023-08-01T09:28:54;0.82;;;0.73;;
14294;SDS011;7231;59.370;18.016;2023-08-01T09:31:26;2.40;;;1.02;;
14294;SDS011;7231;59.370;18.016;2023-08-01T09:33:57;1.58;;;1.10;;
14294;SDS011;7231;59.370;18.016;2023-08-01T09:36:25;2.13;;;1.15;;
14294;SDS011;7231;59.370;18.016;2023-08-01T09:38:58;1.60;;;0.95;;
14294;SDS011;7231;59.370;18.016;2023-08-01T09:41:28;2.00;;;1.20;;
14294;SDS011;7231;59.370;18.016;2023-08-01T09:43:56;2.17;;;1.40;;
14294;SDS011;7231;59.370;18.016;2023-08-01T09:46:25;2.55;;;1.40;;
14294;SDS011;7231;59.370;18.016;2023-08-01T09:48:53;2.33;;;1.33;;
14294;SDS011;7231;59.370;18.016;2023-08-01T09:51:24;1.38;;;1.20;;
14294;SDS011;7231;59.370;18.016;2023-08-01T09:53:52;2.25;;;1.48;;
14294;SDS011;7231;59.370;18.016;2023-08-01T09:56:25;1.73;;;1.00;;
14294;SDS011;7231;59.370;18.016;2023-08-01T09:58:55;2.95;;;1.20;;
14294;SDS011;7231;59.370;18.016;2023-08-01T10:01:24;1.98;;;1.10;;
14294;SDS011;7231;59.370;18.016;2023-08-01T10:03:54;2.33;;;1.38;;
14294;SDS011;7231;59.370;18.016;2023-08-01T10:06:28;2.28;;;1.23;;
14294;SDS011;7231;59.370;18.016;2023-08-01T10:08:59;2.70;;;1.38;;
14294;SDS011;7231;59.370;18.016;2023-08-01T10:11:30;7.53;;;5.72;;
14294;SDS011;7231;59.370;18.016;2023-08-01T10:14:02;2.30;;;1.42;;
14294;SDS011;7231;59.370;18.016;2023-08-01T10:16:30;2.00;;;1.10;;
14294;SDS011;7231;59.370;18.016;2023-08-01T10:18:59;2.30;;;1.50;;
14294;SDS011;7231;59.370;18.016;2023-08-01T10:21:28;1.75;;;1.40;;
14294;SDS011;7231;59.370;18.016;2023-08-01T10:23:58;2.42;;;1.60;;
14294;SDS011;7231;59.370;18.016;2023-08-01T10:26:27;2.30;;;1.30;;
14294;SDS011;7231;59.370;18.016;2023-08-01T10:28:57;2.42;;;1.27;;
14294;SDS011;7231;59.370;18.016;2023-08-01T10:31:27;2.67;;;1.92;;
14294;SDS011;7231;59.370;18.016;2023-08-01T10:34:03;5.93;;;2.75;;
14294;SDS011;7231;59.370;18.016;2023-08-01T10:36:32;3.03;;;1.83;;
14294;SDS011;7231;59.370;18.016;2023-08-01T10:39:01;2.20;;;1.27;;
14294;SDS011;7231;59.370;18.016;2023-08-01T10:41:31;1.55;;;1.10;;
14294;SDS011;7231;59.370;18.016;2023-08-01T10:44:07;2.97;;;1.33;;
14294;SDS011;7231;59.370;18.016;2023-08-01T10:46:45;2.28;;;1.30;;
14294;SDS011;7231;59.370;18.016;2023-08-01T10:49:14;1.95;;;1.42;;
14294;SDS011;7231;59.370;18.016;2023-08-01T10:51:42;2.28;;;1.02;;
14294;SDS011;7231;59.370;18.016;2023-08-01T10:54:20;2.78;;;1.50;;
14294;SDS011;7231;59.370;18.016;2023-08-01T10:56:52;4.30;;;1.33;;
14294;SDS011;7231;59.370;18.016;2023-08-01T10:59:21;1.38;;;1.08;;
14294;SDS011;7231;59.370;18.016;2023-08-01T11:01:50;1.95;;;1.35;;
14294;SDS011;7231;59.370;18.016;2023-08-01T11:04:20;2.72;;;1.20;;
14294;SDS011;7231;59.370;18.016;2023-08-01T11:06:49;2.15;;;1.40;;
14294;SDS011;7231;59.370;18.016;2023-08-01T11:09:19;2.40;;;1.20;;
14294;SDS011;7231;59.370;18.016;2023-08-01T11:11:49;1.70;;;1.10;;
14294;SDS011;7231;59.370;18.016;2023-08-01T11:14:20;1.52;;;1.30;;
14294;SDS011;7231;59.370;18.016;2023-08-01T11:16:49;2.22;;;1.60;;
14294;SDS011;7231;59.370;18.016;2023-08-01T11:19:18;2.20;;;1.30;;
14294;SDS011;7231;59.370;18.016;2023-08-01T11:21:47;4.43;;;3.28;;
14294;SDS011;7231;59.370;18.016;2023-08-01T11:24:16;4.35;;;1.83;;
14294;SDS011;7231;59.370;18.016;2023-08-01T11:26:45;4.18;;;1.83;;
14294;SDS011;7231;59.370;18.016;2023-08-01T11:29:16;2.03;;;1.55;;
14294;SDS011;7231;59.370;18.016;2023-08-01T11:31:52;3.28;;;1.65;;
14294;SDS011;7231;59.370;18.016;2023-08-01T11:34:21;1.88;;;1.20;;
14294;SDS011;7231;59.370;18.016;2023-08-01T11:36:49;1.75;;;1.10;;
14294;SDS011;7231;59.370;18.016;2023-08-01T11:39:18;3.30;;;0.98;;
14294;SDS011;7231;59.370;18.016;2023-08-01T11:41:49;2.83;;;1.10;;
14294;SDS011;7231;59.370;18.016;2023-08-01T11:44:22;1.60;;;1.10;;
14294;SDS011;7231;59.370;18.016;2023-08-01T11:46:51;1.58;;;1.02;;
14294;SDS011;7231;59.370;18.016;2023-08-01T11:49:19;2.00;;;1.20;;
14294;SDS011;7231;59.370;18.016;2023-08-01T11:51:47;2.75;;;0.90;;
14294;SDS011;7231;59.370;18.016;2023-08-01T11:54:16;2.35;;;1.20;;
14294;SDS011;7231;59.370;18.016;2023-08-01T11:56:44;3.83;;;1.10;;
14294;SDS011;7231;59.370;18.016;2023-08-01T11:59:12;1.35;;;1.17;;
14294;SDS011;7231;59.370;18.016;2023-08-01T12:01:43;2.92;;;1.50;;
14294;SDS011;7231;59.370;18.016;2023-08-01T12:04:12;4.03;;;1.25;;
14294;SDS011;7231;59.370;18.016;2023-08-01T12:06:52;2.25;;;0.90;;
14294;SDS011;7231;59.370;18.016;2023-08-01T12:09:19;2.33;;;1.35;;
14294;SDS011;7231;59.370;18.016;2023-08-01T12:11:57;2.15;;;1.15;;
14294;SDS011;7231;59.370;18.016;2023-08-01T12:14:26;1.30;;;0.90;;
14294;SDS011;7231;59.370;18.016;2023-08-01T12:16:56;1.88;;;1.20;;
14294;SDS011;7231;59.370;18.016;2023-08-01T12:19:24;3.17;;;1.40;;
14294;SDS011;7231;59.370;18.016;2023-08-01T12:21:52;2.72;;;1.02;;
14294;SDS011;7231;59.370;18.016;2023-08-01T12:24:20;1.90;;;1.10;;
14294;SDS011;7231;59.370;18.016;2023-08-01T12:26:48;2.55;;;1.00;;
14294;SDS011;7231;59.370;18.016;2023-08-01T12:29:16;3.03;;;1.20;;
14294;SDS011;7231;59.370;18.016;2023-08-01T12:31:44;1.98;;;1.10;;
14294;SDS011;7231;59.370;18.016;2023-08-01T12:34:14;2.45;;;0.90;;
14294;SDS011;7231;59.370;18.016;2023-08-01T12:36:42;3.65;;;1.20;;
14294;SDS011;7231;59.370;18.016;2023-08-01T12:39:10;1.88;;;1.50;;
14294;SDS011;7231;59.370;18.016;2023-08-01T12:41:38;3.17;;;1.88;;
14294;SDS011;7231;59.370;18.016;2023-08-01T12:44:06;4.28;;;1.75;;
14294;SDS011;7231;59.370;18.016;2023-08-01T12:46:34;2.58;;;1.33;;
14294;SDS011;7231;59.370;18.016;2023-08-01T12:49:02;2.42;;;1.40;;
14294;SDS011;7231;59.370;18.016;2023-08-01T12:51:32;2.05;;;1.17;;
14294;SDS011;7231;59.370;18.016;2023-08-01T12:54:00;2.53;;;1.30;;
14294;SDS011;7231;59.370;18.016;2023-08-01T12:56:28;2.15;;;1.13;;
14294;SDS011;7231;59.370;18.016;2023-08-01T12:58:56;1.50;;;1.10;;
14294;SDS011;7231;59.370;18.016;2023-08-01T13:01:24;2.45;;;1.10;;
14294;SDS011;7231;59.370;18.016;2023-08-01T13:03:52;2.00;;;1.23;;
14294;SDS011;7231;59.370;18.016;2023-08-01T13:06:21;2.78;;;1.30;;
14294;SDS011;7231;59.370;18.016;2023-08-01T13:08:50;2.83;;;1.23;;
14294;SDS011;7231;59.370;18.016;2023-08-01T13:11:18;1.38;;;1.02;;
14294;SDS011;7231;59.370;18.016;2023-08-01T13:13:46;2.55;;;1.10;;
14294;SDS011;7231;59.370;18.016;2023-08-01T13:16:14;1.95;;;1.02;;
14294;SDS011;7231;59.370;18.016;2023-08-01T13:18:42;2.53;;;0.98;;
14294;SDS011;7231;59.370;18.016;2023-08-01T13:21:12;3.42;;;1.20;;
14294;SDS011;7231;59.370;18.016;2023-08-01T13:23:40;2.05;;;1.00;;
14294;SDS011;7231;59.370;18.016;2023-08-01T13:26:10;3.22;;;1.10;;
14294;SDS011;7231;59.370;18.016;2023-08-01T13:28:38;2.17;;;1.08;;
14294;SDS011;7231;59.370;18.016;2023-08-01T13:31:06;2.00;;;1.20;;
14294;SDS011;7231;59.370;18.016;2023-08-01T13:33:34;1.40;;;1.13;;
14294;SDS011;7231;59.370;18.016;2023-08-01T13:36:02;1.85;;;1.00;;
14294;SDS011;7231;59.370;18.016;2023-08-01T13:38:30;2.40;;;1.20;;
14294;SDS011;7231;59.370;18.016;2023-08-01T13:40:59;3.08;;;1.00;;
14294;SDS011;7231;59.370;18.016;2023-08-01T13:43:29;2.38;;;1.20;;
14294;SDS011;7231;59.370;18.016;2023-08-01T13:45:57;1.17;;;1.00;;
14294;SDS011;7231;59.370;18.016;2023-08-01T13:48:26;2.22;;;1.30;;
14294;SDS011;7231;59.370;18.016;2023-08-01T13:50:57;2.58;;;1.10;;
14294;SDS011;7231;59.370;18.016;2023-08-01T13:53:25;1.67;;;1.20;;
14294;SDS011;7231;59.370;18.016;2023-08-01T13:55:54;1.30;;;0.90;;
14294;SDS011;7231;59.370;18.016;2023-08-01T13:58:22;1.77;;;1.10;;
14294;SDS011;7231;59.370;18.016;2023-08-01T14:00:51;1.52;;;1.00;;
14294;SDS011;7231;59.370;18.016;2023-08-01T14:03:19;2.55;;;0.93;;
14294;SDS011;7231;59.370;18.016;2023-08-01T14:05:47;2.05;;;0.95;;
14294;SDS011;7231;59.370;18.016;2023-08-01T14:08:15;1.85;;;1.23;;
14294;SDS011;7231;59.370;18.016;2023-08-01T14:10:43;1.42;;;1.10;;
14294;SDS011;7231;59.370;18.016;2023-08-01T14:13:11;1.95;;;1.17;;
14294;SDS011;7231;59.370;18.016;2023-08-01T14:15:39;2.20;;;0.90;;
14294;SDS011;7231;59.370;18.016;2023-08-01T14:18:08;3.40;;;1.50;;
14294;SDS011;7231;59.370;18.016;2023-08-01T14:20:36;1.80;;;1.10;;
14294;SDS011;7231;59.370;18.016;2023-08-01T14:23:04;2.80;;;1.27;;
14294;SDS011;7231;59.370;18.016;2023-08-01T14:25:32;2.28;;;1.10;;
14294;SDS011;7231;59.370;18.016;2023-08-01T14:28:00;2.65;;;1.20;;
14294;SDS011;7231;59.370;18.016;2023-08-01T14:30:28;1.75;;;1.13;;
14294;SDS011;7231;59.370;18.016;2023-08-01T14:32:59;1.27;;;1.13;;
14294;SDS011;7231;59.370;18.016;2023-08-01T14:35:29;1.95;;;1.20;;
14294;SDS011;7231;59.370;18.016;2023-08-01T14:37:57;2.08;;;1.35;;
14294;SDS011;7231;59.370;18.016;2023-08-01T14:40:25;3.72;;;1.42;;
14294;SDS011;7231;59.370;18.016;2023-08-01T14:42:54;2.22;;;1.40;;
14294;SDS011;7231;59.370;18.016;2023-08-01T14:45:22;2.25;;;1.42;;
14294;SDS011;7231;59.370;18.016;2023-08-01T14:47:50;1.90;;;1.20;;
14294;SDS011;7231;59.370;18.016;2023-08-01T14:50:18;6.65;;;1.60;;
14294;SDS011;7231;59.370;18.016;2023-08-01T14:52:48;2.95;;;1.42;;
14294;SDS011;7231;59.370;18.016;2023-08-01T14:55:15;2.15;;;1.10;;
14294;SDS011;7231;59.370;18.016;2023-08-01T14:57:44;2.08;;;1.20;;